sensor_id;sensor_type;location;lat;lon;timestamp;temperature;humidity
56426;DHT22;42330;43.620;3.856;2022-10-29T00:01:21;15.50;99.90
56426;DHT22;42330;43.620;3.856;2022-10-29T00:03:46;15.50;99.90
56426;DHT22;42330;43.620;3.856;2022-10-29T00:06:13;15.40;99.90
56426;DHT22;42330;43.620;3.856;2022-10-29T00:08:40;15.40;99.90
56426;DHT22;42330;43.620;3.856;2022-10-29T00:11:10;15.30;99.90
56426;DHT22;42330;43.620;3.856;2022-10-29T00:13:36;15.30;99.90
56426;DHT22;42330;43.620;3.856;2022-10-29T00:16:12;15.30;99.90
56426;DHT22;42330;43.620;3.856;2022-10-29T00:18:38;15.20;99.90
56426;DHT22;42330;43.620;3.856;2022-10-29T00:21:06;15.30;99.90
56426;DHT22;42330;43.620;3.856;2022-10-29T00:23:33;15.30;99.90
56426;DHT22;42330;43.620;3.856;2022-10-29T00:25:59;15.30;99.90
56426;DHT22;42330;43.620;3.856;2022-10-29T00:28:27;15.20;99.90
56426;DHT22;42330;43.620;3.856;2022-10-29T00:30:53;15.30;99.90
56426;DHT22;42330;43.620;3.856;2022-10-29T00:33:19;15.20;99.90
56426;DHT22;42330;43.620;3.856;2022-10-29T00:38:20;15.20;99.90
56426;DHT22;42330;43.620;3.856;2022-10-29T00:40:46;15.30;99.90
56426;DHT22;42330;43.620;3.856;2022-10-29T00:43:17;15.20;99.90
56426;DHT22;42330;43.620;3.856;2022-10-29T00:48:33;15.00;99.90
56426;DHT22;42330;43.620;3.856;2022-10-29T00:51:02;15.10;99.90
56426;DHT22;42330;43.620;3.856;2022-10-29T00:53:33;15.00;99.90
56426;DHT22;42330;43.620;3.856;2022-10-29T00:56:01;15.00;99.90
56426;DHT22;42330;43.620;3.856;2022-10-29T00:58:27;14.90;99.90
56426;DHT22;42330;43.620;3.856;2022-10-29T01:00:53;14.80;99.90
56426;DHT22;42330;43.620;3.856;2022-10-29T01:03:19;14.80;99.90
56426;DHT22;42330;43.620;3.856;2022-10-29T01:05:45;14.90;99.90
56426;DHT22;42330;43.620;3.856;2022-10-29T01:08:13;15.00;99.90
56426;DHT22;42330;43.620;3.856;2022-10-29T01:18:38;14.80;99.90
56426;DHT22;42330;43.620;3.856;2022-10-29T01:40:58;14.70;99.90
56426;DHT22;42330;43.620;3.856;2022-10-29T01:43:47;14.70;99.90
56426;DHT22;42330;43.620;3.856;2022-10-29T01:48:43;14.70;99.90
56426;DHT22;42330;43.620;3.856;2022-10-29T01:51:17;14.60;99.90
56426;DHT22;42330;43.620;3.856;2022-10-29T01:53:45;14.50;99.90
56426;DHT22;42330;43.620;3.856;2022-10-29T01:56:10;14.50;99.90
56426;DHT22;42330;43.620;3.856;2022-10-29T01:58:37;14.50;99.90
56426;DHT22;42330;43.620;3.856;2022-10-29T02:09:53;14.60;99.90
56426;DHT22;42330;43.620;3.856;2022-10-29T02:12:29;14.70;99.90
56426;DHT22;42330;43.620;3.856;2022-10-29T02:15:11;14.80;99.90
56426;DHT22;42330;43.620;3.856;2022-10-29T02:17:38;14.60;99.90
56426;DHT22;42330;43.620;3.856;2022-10-29T02:20:08;14.60;99.90
56426;DHT22;42330;43.620;3.856;2022-10-29T02:22:34;14.70;99.90
56426;DHT22;42330;43.620;3.856;2022-10-29T02:25:00;14.80;99.90
56426;DHT22;42330;43.620;3.856;2022-10-29T02:27:26;14.70;99.90
56426;DHT22;42330;43.620;3.856;2022-10-29T02:29:52;14.70;99.90
56426;DHT22;42330;43.620;3.856;2022-10-29T02:32:17;14.60;99.90
56426;DHT22;42330;43.620;3.856;2022-10-29T02:34:43;14.50;99.90
56426;DHT22;42330;43.620;3.856;2022-10-29T02:37:10;14.30;99.90
56426;DHT22;42330;43.620;3.856;2022-10-29T02:39:35;14.40;99.90
56426;DHT22;42330;43.620;3.856;2022-10-29T02:42:02;14.30;99.90
56426;DHT22;42330;43.620;3.856;2022-10-29T02:44:27;14.30;99.90
56426;DHT22;42330;43.620;3.856;2022-10-29T02:46:53;14.30;99.90
56426;DHT22;42330;43.620;3.856;2022-10-29T02:49:19;14.30;99.90
56426;DHT22;42330;43.620;3.856;2022-10-29T02:51:44;14.40;99.90
56426;DHT22;42330;43.620;3.856;2022-10-29T02:54:10;14.40;99.90
56426;DHT22;42330;43.620;3.856;2022-10-29T02:56:36;14.40;99.90
56426;DHT22;42330;43.620;3.856;2022-10-29T02:59:01;14.40;99.90
56426;DHT22;42330;43.620;3.856;2022-10-29T03:01:27;14.40;99.90
56426;DHT22;42330;43.620;3.856;2022-10-29T03:03:53;14.30;99.90
56426;DHT22;42330;43.620;3.856;2022-10-29T03:06:19;14.40;99.90
56426;DHT22;42330;43.620;3.856;2022-10-29T03:08:45;14.50;99.90
56426;DHT22;42330;43.620;3.856;2022-10-29T03:11:12;14.40;99.90
56426;DHT22;42330;43.620;3.856;2022-10-29T03:13:38;14.30;99.90
56426;DHT22;42330;43.620;3.856;2022-10-29T03:16:04;14.20;99.90
56426;DHT22;42330;43.620;3.856;2022-10-29T03:18:30;14.20;99.90
56426;DHT22;42330;43.620;3.856;2022-10-29T03:20:55;14.20;99.90
56426;DHT22;42330;43.620;3.856;2022-10-29T03:23:21;14.10;99.90
56426;DHT22;42330;43.620;3.856;2022-10-29T03:25:53;14.20;99.90
56426;DHT22;42330;43.620;3.856;2022-10-29T03:28:21;14.40;99.90
56426;DHT22;42330;43.620;3.856;2022-10-29T03:30:47;14.40;99.90
56426;DHT22;42330;43.620;3.856;2022-10-29T03:33:12;14.40;99.90
56426;DHT22;42330;43.620;3.856;2022-10-29T03:35:38;14.40;99.90
56426;DHT22;42330;43.620;3.856;2022-10-29T03:38:04;14.50;99.90
56426;DHT22;42330;43.620;3.856;2022-10-29T03:40:30;14.40;99.90
56426;DHT22;42330;43.620;3.856;2022-10-29T03:42:55;14.30;99.90
56426;DHT22;42330;43.620;3.856;2022-10-29T03:45:21;14.30;99.90
56426;DHT22;42330;43.620;3.856;2022-10-29T03:47:46;14.20;99.90
56426;DHT22;42330;43.620;3.856;2022-10-29T03:50:12;14.30;99.90
56426;DHT22;42330;43.620;3.856;2022-10-29T03:52:38;14.40;99.90
56426;DHT22;42330;43.620;3.856;2022-10-29T03:55:04;14.50;99.90
56426;DHT22;42330;43.620;3.856;2022-10-29T03:57:30;14.50;99.90
56426;DHT22;42330;43.620;3.856;2022-10-29T03:59:56;14.40;99.90
56426;DHT22;42330;43.620;3.856;2022-10-29T04:02:21;14.30;99.90
56426;DHT22;42330;43.620;3.856;2022-10-29T04:04:47;14.10;99.90
56426;DHT22;42330;43.620;3.856;2022-10-29T04:07:13;14.10;99.90
56426;DHT22;42330;43.620;3.856;2022-10-29T04:09:39;14.00;99.90
56426;DHT22;42330;43.620;3.856;2022-10-29T04:12:05;14.00;99.90
56426;DHT22;42330;43.620;3.856;2022-10-29T04:14:31;14.10;99.90
56426;DHT22;42330;43.620;3.856;2022-10-29T04:16:57;14.00;99.90
56426;DHT22;42330;43.620;3.856;2022-10-29T04:19:23;14.00;99.90
56426;DHT22;42330;43.620;3.856;2022-10-29T04:21:48;13.90;99.90
56426;DHT22;42330;43.620;3.856;2022-10-29T04:24:14;13.90;99.90
56426;DHT22;42330;43.620;3.856;2022-10-29T04:26:43;14.00;99.90
56426;DHT22;42330;43.620;3.856;2022-10-29T04:29:09;14.00;99.90
56426;DHT22;42330;43.620;3.856;2022-10-29T04:31:35;14.00;99.90
56426;DHT22;42330;43.620;3.856;2022-10-29T04:34:01;14.10;99.90
56426;DHT22;42330;43.620;3.856;2022-10-29T04:36:26;14.00;99.90
56426;DHT22;42330;43.620;3.856;2022-10-29T04:38:52;14.10;99.90
56426;DHT22;42330;43.620;3.856;2022-10-29T04:41:18;14.10;99.90
56426;DHT22;42330;43.620;3.856;2022-10-29T04:43:43;14.10;99.90
56426;DHT22;42330;43.620;3.856;2022-10-29T04:46:10;13.90;99.90
56426;DHT22;42330;43.620;3.856;2022-10-29T04:48:36;13.90;99.90
56426;DHT22;42330;43.620;3.856;2022-10-29T04:51:01;13.90;99.90
56426;DHT22;42330;43.620;3.856;2022-10-29T04:53:27;13.80;99.90
56426;DHT22;42330;43.620;3.856;2022-10-29T04:55:59;13.90;99.90
56426;DHT22;42330;43.620;3.856;2022-10-29T04:58:30;13.90;99.90
56426;DHT22;42330;43.620;3.856;2022-10-29T05:01:03;13.90;99.90
56426;DHT22;42330;43.620;3.856;2022-10-29T05:03:30;13.80;99.90
56426;DHT22;42330;43.620;3.856;2022-10-29T05:05:55;13.80;99.90
56426;DHT22;42330;43.620;3.856;2022-10-29T05:08:21;13.90;99.90
56426;DHT22;42330;43.620;3.856;2022-10-29T05:10:47;14.00;99.90
56426;DHT22;42330;43.620;3.856;2022-10-29T05:13:13;13.90;99.90
56426;DHT22;42330;43.620;3.856;2022-10-29T05:15:39;13.90;99.90
56426;DHT22;42330;43.620;3.856;2022-10-29T05:18:05;13.80;99.90
56426;DHT22;42330;43.620;3.856;2022-10-29T05:20:31;13.70;99.90
56426;DHT22;42330;43.620;3.856;2022-10-29T05:23:05;13.60;99.90
56426;DHT22;42330;43.620;3.856;2022-10-29T05:25:33;13.60;99.90
56426;DHT22;42330;43.620;3.856;2022-10-29T05:28:03;13.60;99.90
56426;DHT22;42330;43.620;3.856;2022-10-29T05:30:30;13.70;99.90
56426;DHT22;42330;43.620;3.856;2022-10-29T05:32:56;13.80;99.90
56426;DHT22;42330;43.620;3.856;2022-10-29T05:35:21;13.80;99.90
56426;DHT22;42330;43.620;3.856;2022-10-29T05:37:56;13.70;99.90
56426;DHT22;42330;43.620;3.856;2022-10-29T05:40:22;13.60;99.90
56426;DHT22;42330;43.620;3.856;2022-10-29T05:42:48;13.60;99.90
56426;DHT22;42330;43.620;3.856;2022-10-29T05:45:14;13.70;99.90
56426;DHT22;42330;43.620;3.856;2022-10-29T05:47:40;13.60;99.90
56426;DHT22;42330;43.620;3.856;2022-10-29T05:50:06;13.60;99.90
56426;DHT22;42330;43.620;3.856;2022-10-29T05:52:32;13.60;99.90
56426;DHT22;42330;43.620;3.856;2022-10-29T05:54:58;13.60;99.90
56426;DHT22;42330;43.620;3.856;2022-10-29T05:57:24;13.60;99.90
56426;DHT22;42330;43.620;3.856;2022-10-29T05:59:49;13.70;99.90
56426;DHT22;42330;43.620;3.856;2022-10-29T06:02:15;13.70;99.90
56426;DHT22;42330;43.620;3.856;2022-10-29T06:04:40;13.80;99.90
56426;DHT22;42330;43.620;3.856;2022-10-29T06:07:06;13.80;99.90
56426;DHT22;42330;43.620;3.856;2022-10-29T06:09:32;13.80;99.90
56426;DHT22;42330;43.620;3.856;2022-10-29T06:11:57;13.90;99.90
56426;DHT22;42330;43.620;3.856;2022-10-29T06:14:23;13.90;99.90
56426;DHT22;42330;43.620;3.856;2022-10-29T06:16:49;13.90;99.90
56426;DHT22;42330;43.620;3.856;2022-10-29T06:19:14;13.80;99.90
56426;DHT22;42330;43.620;3.856;2022-10-29T06:21:40;13.70;99.90
56426;DHT22;42330;43.620;3.856;2022-10-29T06:24:06;13.80;99.90
56426;DHT22;42330;43.620;3.856;2022-10-29T06:26:32;13.70;99.90
56426;DHT22;42330;43.620;3.856;2022-10-29T06:28:58;13.70;99.90
56426;DHT22;42330;43.620;3.856;2022-10-29T06:31:24;13.80;99.90
56426;DHT22;42330;43.620;3.856;2022-10-29T06:33:50;13.90;99.90
56426;DHT22;42330;43.620;3.856;2022-10-29T06:36:16;13.90;99.90
56426;DHT22;42330;43.620;3.856;2022-10-29T06:38:42;13.90;99.90
56426;DHT22;42330;43.620;3.856;2022-10-29T06:41:07;13.80;99.90
56426;DHT22;42330;43.620;3.856;2022-10-29T06:43:34;13.80;99.90
56426;DHT22;42330;43.620;3.856;2022-10-29T06:45:59;13.80;99.90
56426;DHT22;42330;43.620;3.856;2022-10-29T06:48:25;13.70;99.90
56426;DHT22;42330;43.620;3.856;2022-10-29T06:50:51;13.80;99.90
56426;DHT22;42330;43.620;3.856;2022-10-29T06:53:17;13.80;99.90
56426;DHT22;42330;43.620;3.856;2022-10-29T06:55:43;13.90;99.90
56426;DHT22;42330;43.620;3.856;2022-10-29T06:58:13;14.00;99.90
56426;DHT22;42330;43.620;3.856;2022-10-29T07:00:40;14.10;99.90
56426;DHT22;42330;43.620;3.856;2022-10-29T07:03:10;14.10;99.90
56426;DHT22;42330;43.620;3.856;2022-10-29T07:05:36;14.20;99.90
56426;DHT22;42330;43.620;3.856;2022-10-29T07:08:02;14.20;99.90
56426;DHT22;42330;43.620;3.856;2022-10-29T07:10:30;14.20;99.90
56426;DHT22;42330;43.620;3.856;2022-10-29T07:12:55;14.30;99.90
56426;DHT22;42330;43.620;3.856;2022-10-29T07:15:21;14.30;99.90
56426;DHT22;42330;43.620;3.856;2022-10-29T07:18:17;14.30;99.90
56426;DHT22;42330;43.620;3.856;2022-10-29T07:20:43;14.40;99.90
56426;DHT22;42330;43.620;3.856;2022-10-29T07:23:10;14.40;99.90
56426;DHT22;42330;43.620;3.856;2022-10-29T07:25:37;14.40;99.90
56426;DHT22;42330;43.620;3.856;2022-10-29T07:28:08;14.50;99.90
56426;DHT22;42330;43.620;3.856;2022-10-29T07:30:35;14.60;99.90
56426;DHT22;42330;43.620;3.856;2022-10-29T07:33:00;14.70;99.90
56426;DHT22;42330;43.620;3.856;2022-10-29T07:35:26;14.70;99.90
56426;DHT22;42330;43.620;3.856;2022-10-29T07:37:56;14.80;99.90
56426;DHT22;42330;43.620;3.856;2022-10-29T07:40:22;14.80;99.90
56426;DHT22;42330;43.620;3.856;2022-10-29T07:42:51;14.90;99.90
56426;DHT22;42330;43.620;3.856;2022-10-29T07:45:17;15.00;99.90
56426;DHT22;42330;43.620;3.856;2022-10-29T07:47:42;15.00;99.90
56426;DHT22;42330;43.620;3.856;2022-10-29T07:50:08;15.10;99.90
56426;DHT22;42330;43.620;3.856;2022-10-29T07:52:34;15.20;99.90
56426;DHT22;42330;43.620;3.856;2022-10-29T07:54:59;15.20;99.90
56426;DHT22;42330;43.620;3.856;2022-10-29T07:57:27;15.30;99.90
56426;DHT22;42330;43.620;3.856;2022-10-29T07:59:53;15.40;99.90
56426;DHT22;42330;43.620;3.856;2022-10-29T08:02:18;15.50;99.90
56426;DHT22;42330;43.620;3.856;2022-10-29T08:04:44;15.50;99.90
56426;DHT22;42330;43.620;3.856;2022-10-29T08:07:10;15.60;99.90
56426;DHT22;42330;43.620;3.856;2022-10-29T08:09:35;15.80;99.90
56426;DHT22;42330;43.620;3.856;2022-10-29T08:12:01;15.80;99.90
56426;DHT22;42330;43.620;3.856;2022-10-29T08:14:29;15.90;99.90
56426;DHT22;42330;43.620;3.856;2022-10-29T08:16:55;16.00;99.90
56426;DHT22;42330;43.620;3.856;2022-10-29T08:19:21;16.00;99.90
56426;DHT22;42330;43.620;3.856;2022-10-29T08:21:47;16.10;99.90
56426;DHT22;42330;43.620;3.856;2022-10-29T08:24:12;16.10;99.90
56426;DHT22;42330;43.620;3.856;2022-10-29T08:26:38;16.20;99.90
56426;DHT22;42330;43.620;3.856;2022-10-29T08:29:04;16.20;99.90
56426;DHT22;42330;43.620;3.856;2022-10-29T08:31:30;16.30;99.90
56426;DHT22;42330;43.620;3.856;2022-10-29T08:33:55;16.40;99.90
56426;DHT22;42330;43.620;3.856;2022-10-29T08:36:21;16.40;99.90
56426;DHT22;42330;43.620;3.856;2022-10-29T08:38:47;16.50;99.90
56426;DHT22;42330;43.620;3.856;2022-10-29T08:47:19;16.70;99.90
56426;DHT22;42330;43.620;3.856;2022-10-29T08:52:16;16.90;99.90
56426;DHT22;42330;43.620;3.856;2022-10-29T08:54:48;17.00;99.90
56426;DHT22;42330;43.620;3.856;2022-10-29T08:57:18;17.40;99.90
56426;DHT22;42330;43.620;3.856;2022-10-29T09:00:09;17.80;99.90
56426;DHT22;42330;43.620;3.856;2022-10-29T09:02:37;17.90;99.90
56426;DHT22;42330;43.620;3.856;2022-10-29T09:05:05;17.80;99.90
56426;DHT22;42330;43.620;3.856;2022-10-29T09:08:17;17.80;99.90
56426;DHT22;42330;43.620;3.856;2022-10-29T09:10:32;17.80;99.90
56426;DHT22;42330;43.620;3.856;2022-10-29T09:18:26;17.80;99.90
56426;DHT22;42330;43.620;3.856;2022-10-29T09:23:27;17.90;99.90
56426;DHT22;42330;43.620;3.856;2022-10-29T09:26:08;18.00;99.90
56426;DHT22;42330;43.620;3.856;2022-10-29T09:31:33;18.10;99.90
56426;DHT22;42330;43.620;3.856;2022-10-29T09:34:09;18.20;99.90
56426;DHT22;42330;43.620;3.856;2022-10-29T09:36:37;18.20;99.90
56426;DHT22;42330;43.620;3.856;2022-10-29T09:39:12;18.30;99.90
56426;DHT22;42330;43.620;3.856;2022-10-29T09:41:39;18.40;99.90
56426;DHT22;42330;43.620;3.856;2022-10-29T09:44:21;18.40;99.90
56426;DHT22;42330;43.620;3.856;2022-10-29T09:47:03;18.60;99.90
56426;DHT22;42330;43.620;3.856;2022-10-29T09:49:55;18.60;99.90
56426;DHT22;42330;43.620;3.856;2022-10-29T09:52:29;18.60;99.90
56426;DHT22;42330;43.620;3.856;2022-10-29T09:54:58;18.70;99.90
56426;DHT22;42330;43.620;3.856;2022-10-29T09:57:27;18.80;99.90
56426;DHT22;42330;43.620;3.856;2022-10-29T10:00:16;18.90;99.90
56426;DHT22;42330;43.620;3.856;2022-10-29T10:02:47;18.90;99.90
56426;DHT22;42330;43.620;3.856;2022-10-29T10:05:14;18.90;99.90
56426;DHT22;42330;43.620;3.856;2022-10-29T10:07:41;19.00;99.90
56426;DHT22;42330;43.620;3.856;2022-10-29T10:10:19;19.00;99.90
56426;DHT22;42330;43.620;3.856;2022-10-29T10:12:47;19.10;99.90
56426;DHT22;42330;43.620;3.856;2022-10-29T10:15:24;19.30;99.90
56426;DHT22;42330;43.620;3.856;2022-10-29T10:18:00;19.40;99.90
56426;DHT22;42330;43.620;3.856;2022-10-29T10:20:37;19.40;99.90
56426;DHT22;42330;43.620;3.856;2022-10-29T10:25:47;19.60;99.90
56426;DHT22;42330;43.620;3.856;2022-10-29T10:31:08;19.70;99.90
56426;DHT22;42330;43.620;3.856;2022-10-29T10:33:33;19.80;99.90
56426;DHT22;42330;43.620;3.856;2022-10-29T10:36:09;19.90;99.90
56426;DHT22;42330;43.620;3.856;2022-10-29T10:38:43;19.90;99.90
56426;DHT22;42330;43.620;3.856;2022-10-29T10:41:11;20.10;99.90
56426;DHT22;42330;43.620;3.856;2022-10-29T10:43:43;20.60;99.90
56426;DHT22;42330;43.620;3.856;2022-10-29T10:46:15;21.20;99.80
56426;DHT22;42330;43.620;3.856;2022-10-29T10:48:42;22.10;99.30
56426;DHT22;42330;43.620;3.856;2022-10-29T10:51:26;22.20;97.70
56426;DHT22;42330;43.620;3.856;2022-10-29T10:53:52;21.90;96.80
56426;DHT22;42330;43.620;3.856;2022-10-29T10:56:20;21.50;98.30
56426;DHT22;42330;43.620;3.856;2022-10-29T10:58:55;21.30;98.70
56426;DHT22;42330;43.620;3.856;2022-10-29T11:01:30;21.10;97.70
56426;DHT22;42330;43.620;3.856;2022-10-29T11:04:32;21.10;98.20
56426;DHT22;42330;43.620;3.856;2022-10-29T11:07:03;21.00;99.30
56426;DHT22;42330;43.620;3.856;2022-10-29T11:09:33;21.00;97.90
56426;DHT22;42330;43.620;3.856;2022-10-29T11:12:08;20.90;97.60
56426;DHT22;42330;43.620;3.856;2022-10-29T11:14:49;20.90;98.40
56426;DHT22;42330;43.620;3.856;2022-10-29T11:17:32;20.90;97.00
56426;DHT22;42330;43.620;3.856;2022-10-29T11:20:05;20.90;97.70
56426;DHT22;42330;43.620;3.856;2022-10-29T11:30:53;21.10;96.00
56426;DHT22;42330;43.620;3.856;2022-10-29T11:36:13;21.10;96.60
56426;DHT22;42330;43.620;3.856;2022-10-29T11:38:46;21.10;96.00
56426;DHT22;42330;43.620;3.856;2022-10-29T11:43:53;21.20;95.90
56426;DHT22;42330;43.620;3.856;2022-10-29T11:46:35;21.20;96.60
56426;DHT22;42330;43.620;3.856;2022-10-29T11:52:11;21.30;95.10
56426;DHT22;42330;43.620;3.856;2022-10-29T11:57:17;21.30;94.70
56426;DHT22;42330;43.620;3.856;2022-10-29T12:00:18;21.30;95.30
56426;DHT22;42330;43.620;3.856;2022-10-29T12:11:10;21.50;93.50
56426;DHT22;42330;43.620;3.856;2022-10-29T12:21:47;21.70;94.30
56426;DHT22;42330;43.620;3.856;2022-10-29T12:30:14;21.80;93.20
56426;DHT22;42330;43.620;3.856;2022-10-29T12:33:05;21.70;93.20
56426;DHT22;42330;43.620;3.856;2022-10-29T12:35:51;21.70;93.00
56426;DHT22;42330;43.620;3.856;2022-10-29T12:38:40;21.70;92.90
56426;DHT22;42330;43.620;3.856;2022-10-29T12:41:42;21.80;92.90
56426;DHT22;42330;43.620;3.856;2022-10-29T12:49:46;21.80;93.10
56426;DHT22;42330;43.620;3.856;2022-10-29T12:54:46;21.90;93.30
56426;DHT22;42330;43.620;3.856;2022-10-29T12:59:43;21.90;93.30
56426;DHT22;42330;43.620;3.856;2022-10-29T13:07:32;22.00;93.00
56426;DHT22;42330;43.620;3.856;2022-10-29T13:17:56;22.10;91.50
56426;DHT22;42330;43.620;3.856;2022-10-29T13:20:28;22.10;91.10
56426;DHT22;42330;43.620;3.856;2022-10-29T13:22:58;22.10;91.10
56426;DHT22;42330;43.620;3.856;2022-10-29T13:25:50;22.10;91.00
56426;DHT22;42330;43.620;3.856;2022-10-29T13:30:42;22.10;91.50
56426;DHT22;42330;43.620;3.856;2022-10-29T13:39:13;22.50;91.80
56426;DHT22;42330;43.620;3.856;2022-10-29T13:41:50;22.40;91.50
56426;DHT22;42330;43.620;3.856;2022-10-29T13:44:22;22.20;91.00
56426;DHT22;42330;43.620;3.856;2022-10-29T13:46:57;22.20;91.20
56426;DHT22;42330;43.620;3.856;2022-10-29T13:49:30;22.10;91.00
56426;DHT22;42330;43.620;3.856;2022-10-29T13:52:20;22.10;90.60
56426;DHT22;42330;43.620;3.856;2022-10-29T13:57:25;22.60;90.70
56426;DHT22;42330;43.620;3.856;2022-10-29T14:07:54;22.50;90.50
56426;DHT22;42330;43.620;3.856;2022-10-29T14:13:58;22.10;90.60
56426;DHT22;42330;43.620;3.856;2022-10-29T14:16:17;22.10;91.50
56426;DHT22;42330;43.620;3.856;2022-10-29T14:18:48;22.10;91.40
56426;DHT22;42330;43.620;3.856;2022-10-29T14:21:15;22.00;91.50
56426;DHT22;42330;43.620;3.856;2022-10-29T14:24:03;21.90;91.20
56426;DHT22;42330;43.620;3.856;2022-10-29T14:26:31;21.80;91.80
56426;DHT22;42330;43.620;3.856;2022-10-29T14:29:21;21.70;91.00
56426;DHT22;42330;43.620;3.856;2022-10-29T14:32:10;21.70;92.30
56426;DHT22;42330;43.620;3.856;2022-10-29T14:34:36;21.60;91.40
56426;DHT22;42330;43.620;3.856;2022-10-29T14:37:09;21.60;91.40
56426;DHT22;42330;43.620;3.856;2022-10-29T14:39:45;21.50;91.70
56426;DHT22;42330;43.620;3.856;2022-10-29T14:42:34;21.40;91.80
56426;DHT22;42330;43.620;3.856;2022-10-29T14:45:15;21.40;93.10
56426;DHT22;42330;43.620;3.856;2022-10-29T14:47:41;21.30;93.10
56426;DHT22;42330;43.620;3.856;2022-10-29T14:50:17;21.20;93.30
56426;DHT22;42330;43.620;3.856;2022-10-29T14:52:47;21.20;92.90
56426;DHT22;42330;43.620;3.856;2022-10-29T15:00:34;21.00;93.10
56426;DHT22;42330;43.620;3.856;2022-10-29T15:03:02;21.00;93.60
56426;DHT22;42330;43.620;3.856;2022-10-29T15:05:35;20.90;93.90
56426;DHT22;42330;43.620;3.856;2022-10-29T15:10:30;20.90;94.30
56426;DHT22;42330;43.620;3.856;2022-10-29T15:12:56;20.80;93.70
56426;DHT22;42330;43.620;3.856;2022-10-29T15:15:24;20.80;94.50
56426;DHT22;42330;43.620;3.856;2022-10-29T15:18:06;20.80;94.80
56426;DHT22;42330;43.620;3.856;2022-10-29T15:23:05;20.70;95.20
56426;DHT22;42330;43.620;3.856;2022-10-29T15:25:37;20.70;95.60
56426;DHT22;42330;43.620;3.856;2022-10-29T15:28:09;20.60;95.70
56426;DHT22;42330;43.620;3.856;2022-10-29T15:30:36;20.60;95.60
56426;DHT22;42330;43.620;3.856;2022-10-29T15:33:04;20.50;96.10
56426;DHT22;42330;43.620;3.856;2022-10-29T15:35:40;20.50;96.30
56426;DHT22;42330;43.620;3.856;2022-10-29T15:43:38;20.40;96.70
56426;DHT22;42330;43.620;3.856;2022-10-29T15:46:26;20.40;96.70
56426;DHT22;42330;43.620;3.856;2022-10-29T15:48:52;20.30;97.30
56426;DHT22;42330;43.620;3.856;2022-10-29T15:51:26;20.30;97.00
56426;DHT22;42330;43.620;3.856;2022-10-29T15:53:54;20.30;97.30
56426;DHT22;42330;43.620;3.856;2022-10-29T15:56:20;20.20;97.70
56426;DHT22;42330;43.620;3.856;2022-10-29T15:58:46;20.20;97.50
56426;DHT22;42330;43.620;3.856;2022-10-29T16:01:14;20.20;97.50
56426;DHT22;42330;43.620;3.856;2022-10-29T16:03:41;20.20;97.70
56426;DHT22;42330;43.620;3.856;2022-10-29T16:06:08;20.10;98.00
56426;DHT22;42330;43.620;3.856;2022-10-29T16:08:41;20.10;98.10
56426;DHT22;42330;43.620;3.856;2022-10-29T16:11:20;20.00;98.30
56426;DHT22;42330;43.620;3.856;2022-10-29T16:13:46;20.00;98.50
56426;DHT22;42330;43.620;3.856;2022-10-29T16:16:17;20.00;98.70
56426;DHT22;42330;43.620;3.856;2022-10-29T16:18:44;19.90;99.20
56426;DHT22;42330;43.620;3.856;2022-10-29T16:21:21;19.80;99.30
56426;DHT22;42330;43.620;3.856;2022-10-29T16:23:48;19.80;99.40
56426;DHT22;42330;43.620;3.856;2022-10-29T16:26:16;19.70;99.50
56426;DHT22;42330;43.620;3.856;2022-10-29T16:28:42;19.70;99.70
56426;DHT22;42330;43.620;3.856;2022-10-29T16:31:25;19.60;99.60
56426;DHT22;42330;43.620;3.856;2022-10-29T16:33:57;19.50;99.90
56426;DHT22;42330;43.620;3.856;2022-10-29T16:36:23;19.40;99.90
56426;DHT22;42330;43.620;3.856;2022-10-29T16:38:49;19.40;99.90
56426;DHT22;42330;43.620;3.856;2022-10-29T16:41:16;19.40;99.90
56426;DHT22;42330;43.620;3.856;2022-10-29T16:43:43;19.30;99.90
56426;DHT22;42330;43.620;3.856;2022-10-29T16:46:09;19.20;99.90
56426;DHT22;42330;43.620;3.856;2022-10-29T16:48:35;19.10;99.90
56426;DHT22;42330;43.620;3.856;2022-10-29T16:51:01;19.10;99.90
56426;DHT22;42330;43.620;3.856;2022-10-29T16:53:27;19.00;99.90
56426;DHT22;42330;43.620;3.856;2022-10-29T16:55:52;19.00;99.90
56426;DHT22;42330;43.620;3.856;2022-10-29T16:58:18;19.00;99.90
56426;DHT22;42330;43.620;3.856;2022-10-29T17:00:45;19.00;99.90
56426;DHT22;42330;43.620;3.856;2022-10-29T17:03:11;18.90;99.90
56426;DHT22;42330;43.620;3.856;2022-10-29T17:05:40;18.90;99.90
56426;DHT22;42330;43.620;3.856;2022-10-29T17:08:06;18.80;99.90
56426;DHT22;42330;43.620;3.856;2022-10-29T17:10:32;18.70;99.90
56426;DHT22;42330;43.620;3.856;2022-10-29T17:12:58;18.70;99.90
56426;DHT22;42330;43.620;3.856;2022-10-29T17:15:24;18.60;99.90
56426;DHT22;42330;43.620;3.856;2022-10-29T17:17:50;18.50;99.90
56426;DHT22;42330;43.620;3.856;2022-10-29T17:20:16;18.50;99.90
56426;DHT22;42330;43.620;3.856;2022-10-29T17:22:42;18.60;99.90
56426;DHT22;42330;43.620;3.856;2022-10-29T17:25:08;18.50;99.90
56426;DHT22;42330;43.620;3.856;2022-10-29T17:27:40;18.40;99.90
56426;DHT22;42330;43.620;3.856;2022-10-29T17:30:06;18.40;99.90
56426;DHT22;42330;43.620;3.856;2022-10-29T17:32:33;18.30;99.90
56426;DHT22;42330;43.620;3.856;2022-10-29T17:34:59;18.30;99.90
56426;DHT22;42330;43.620;3.856;2022-10-29T17:37:25;18.10;99.90
56426;DHT22;42330;43.620;3.856;2022-10-29T17:39:50;18.10;99.90
56426;DHT22;42330;43.620;3.856;2022-10-29T17:42:16;18.20;99.90
56426;DHT22;42330;43.620;3.856;2022-10-29T17:44:42;18.10;99.90
56426;DHT22;42330;43.620;3.856;2022-10-29T17:47:07;18.00;99.90
56426;DHT22;42330;43.620;3.856;2022-10-29T17:49:35;17.90;99.90
56426;DHT22;42330;43.620;3.856;2022-10-29T17:52:01;18.00;99.90
56426;DHT22;42330;43.620;3.856;2022-10-29T17:54:27;18.00;99.90
56426;DHT22;42330;43.620;3.856;2022-10-29T17:56:53;18.00;99.90
56426;DHT22;42330;43.620;3.856;2022-10-29T17:59:19;18.00;99.90
56426;DHT22;42330;43.620;3.856;2022-10-29T18:01:44;18.00;99.90
56426;DHT22;42330;43.620;3.856;2022-10-29T18:04:10;17.80;99.90
56426;DHT22;42330;43.620;3.856;2022-10-29T18:06:35;17.80;99.90
56426;DHT22;42330;43.620;3.856;2022-10-29T18:09:01;17.80;99.90
56426;DHT22;42330;43.620;3.856;2022-10-29T18:11:27;17.70;99.90
56426;DHT22;42330;43.620;3.856;2022-10-29T18:13:55;17.80;99.90
56426;DHT22;42330;43.620;3.856;2022-10-29T18:16:24;17.80;99.90
56426;DHT22;42330;43.620;3.856;2022-10-29T18:18:51;17.70;99.90
56426;DHT22;42330;43.620;3.856;2022-10-29T18:21:18;17.70;99.90
56426;DHT22;42330;43.620;3.856;2022-10-29T18:23:44;17.50;99.90
56426;DHT22;42330;43.620;3.856;2022-10-29T18:26:29;17.50;99.90
56426;DHT22;42330;43.620;3.856;2022-10-29T18:29:00;17.40;99.90
56426;DHT22;42330;43.620;3.856;2022-10-29T18:31:28;17.50;99.90
56426;DHT22;42330;43.620;3.856;2022-10-29T18:33:55;17.50;99.90
56426;DHT22;42330;43.620;3.856;2022-10-29T18:36:21;17.60;99.90